createdAt,value
2022-10-19T00:00:04.896Z,17.82
2022-10-19T00:05:08.060Z,17.77
2022-10-19T00:10:10.262Z,17.75
2022-10-19T00:15:11.935Z,17.70
2022-10-19T00:20:14.403Z,17.61
2022-10-19T00:25:16.223Z,17.58
2022-10-19T00:30:17.810Z,17.56
2022-10-19T00:35:19.415Z,17.54
2022-10-19T00:40:21.027Z,17.52
2022-10-19T00:45:22.677Z,17.49
2022-10-19T00:50:24.298Z,17.47
2022-10-19T00:55:26.066Z,17.41
2022-10-19T01:00:29.189Z,17.35
2022-10-19T01:05:32.119Z,17.35
2022-10-19T01:10:46.095Z,17.35
2022-10-19T01:16:19.847Z,17.33
2022-10-19T01:21:54.574Z,17.31
2022-10-19T01:27:22.769Z,17.26
2022-10-19T01:32:35.204Z,17.23
2022-10-19T01:37:49.753Z,17.18
2022-10-19T01:43:03.462Z,17.16
2022-10-19T01:48:23.795Z,17.13
2022-10-19T01:53:28.181Z,17.10
2022-10-19T01:58:35.026Z,17.09
2022-10-19T02:03:38.282Z,17.09
2022-10-19T02:08:52.175Z,17.08
2022-10-19T02:14:01.555Z,17.07
2022-10-19T02:19:08.709Z,17.03
2022-10-19T02:24:10.412Z,17.00
2022-10-19T02:29:17.114Z,16.97
2022-10-19T02:34:19.405Z,16.94
2022-10-19T02:39:21.516Z,16.92
2022-10-19T02:44:31.463Z,16.89
2022-10-19T02:49:35.536Z,16.87
2022-10-19T02:54:39.197Z,16.84
2022-10-19T02:59:40.802Z,16.82
2022-10-19T03:04:44.414Z,16.82
2022-10-19T03:09:46.281Z,16.80
2022-10-19T03:14:47.927Z,16.78
2022-10-19T03:19:49.565Z,16.75
2022-10-19T03:24:51.855Z,16.73
2022-10-19T03:29:53.410Z,16.69
2022-10-19T03:34:55.168Z,16.67
2022-10-19T03:39:56.818Z,16.64
2022-10-19T03:44:58.626Z,16.59
2022-10-19T03:50:00.240Z,16.55
2022-10-19T03:55:01.833Z,16.45
2022-10-19T04:00:07.539Z,16.37
2022-10-19T04:05:13.584Z,16.29
2022-10-19T04:10:15.282Z,16.22
2022-10-19T04:15:16.996Z,16.19
2022-10-19T04:20:18.576Z,16.14
2022-10-19T04:25:20.773Z,16.12
2022-10-19T04:30:22.538Z,16.09
2022-10-19T04:35:24.330Z,16.04
2022-10-19T04:40:26.169Z,16.02
2022-10-19T04:45:27.791Z,15.98
2022-10-19T04:50:29.331Z,15.96
2022-10-19T04:55:32.050Z,15.94
2022-10-19T05:00:33.947Z,15.90
2022-10-19T05:05:35.825Z,15.87
2022-10-19T05:10:37.957Z,15.82
2022-10-19T05:15:39.628Z,15.78
2022-10-19T05:20:41.221Z,15.75
2022-10-19T05:25:43.378Z,15.71
2022-10-19T05:30:48.822Z,15.68
2022-10-19T05:35:50.694Z,15.66
2022-10-19T05:40:53.689Z,15.63
2022-10-19T05:45:55.436Z,15.59
2022-10-19T05:50:58.495Z,15.54
2022-10-19T05:56:00.186Z,15.48
2022-10-19T06:01:02.669Z,15.44
2022-10-19T06:06:06.449Z,15.39
2022-10-19T06:11:35.274Z,15.34
2022-10-19T06:16:37.189Z,15.25
2022-10-19T06:21:41.840Z,15.21
2022-10-19T06:26:46.783Z,15.17
2022-10-19T06:31:48.438Z,15.15
2022-10-19T06:36:50.499Z,15.14
2022-10-19T06:41:52.161Z,15.15
2022-10-19T06:46:53.816Z,15.18
2022-10-19T06:51:55.372Z,15.25
2022-10-19T06:56:58.045Z,15.31
2022-10-19T07:01:59.775Z,15.37
2022-10-19T07:07:01.465Z,15.44
2022-10-19T07:12:03.113Z,15.52
2022-10-19T07:17:06.753Z,15.61
2022-10-19T07:22:08.409Z,15.72
2022-10-19T07:27:10.066Z,15.80
2022-10-19T07:32:11.683Z,15.86
2022-10-19T07:37:13.468Z,15.91
2022-10-19T07:42:15.361Z,15.94
2022-10-19T07:47:16.965Z,16.00
2022-10-19T07:52:18.654Z,16.01
2022-10-19T07:57:22.279Z,16.04
2022-10-19T08:02:30.775Z,16.09
2022-10-19T08:07:41.987Z,16.16
2022-10-19T08:12:44.254Z,16.27
2022-10-19T08:17:45.902Z,16.39
2022-10-19T08:22:47.733Z,16.49
2022-10-19T08:27:49.447Z,16.61
2022-10-19T08:32:51.165Z,16.67
2022-10-19T08:37:53.362Z,16.67
2022-10-19T08:43:01.931Z,16.68
2022-10-19T08:48:15.330Z,16.74
2022-10-19T08:53:24.095Z,16.80
2022-10-19T08:59:10.122Z,16.85
2022-10-19T09:04:18.898Z,16.93
2022-10-19T09:09:20.999Z,17.01
2022-10-19T09:14:33.908Z,17.06
2022-10-19T09:19:35.728Z,17.08
2022-10-19T09:24:42.200Z,17.14
2022-10-19T09:29:47.754Z,17.16
2022-10-19T09:35:02.317Z,17.22
2022-10-19T09:40:06.367Z,17.26
2022-10-19T09:45:31.846Z,17.26
2022-10-19T09:50:33.477Z,17.27
2022-10-19T09:55:35.075Z,17.31
2022-10-19T10:00:45.135Z,17.32
2022-10-19T10:05:48.107Z,17.34
2022-10-19T10:11:13.142Z,17.37
2022-10-19T10:16:17.859Z,17.40
2022-10-19T10:21:32.147Z,17.32
2022-10-19T10:26:43.111Z,17.22
2022-10-19T10:31:47.177Z,17.18
2022-10-19T10:36:51.733Z,17.11
2022-10-19T10:41:54.253Z,17.08
2022-10-19T10:46:58.700Z,17.00
2022-10-19T10:52:05.396Z,16.94
2022-10-19T10:57:20.570Z,16.86
2022-10-19T11:02:31.660Z,16.87
2022-10-19T11:07:36.065Z,16.91
2022-10-19T11:12:44.151Z,16.88
2022-10-19T11:17:57.358Z,16.88
2022-10-19T11:22:58.931Z,16.94
2022-10-19T11:28:16.712Z,17.06
2022-10-19T11:33:52.014Z,17.16
2022-10-19T11:38:54.003Z,17.28
2022-10-19T11:44:24.257Z,17.40
2022-10-19T11:49:45.943Z,17.52
2022-10-19T11:55:19.804Z,17.67
2022-10-19T12:05:50.002Z,18.01
2022-10-19T12:11:36.090Z,18.18
2022-10-19T12:16:44.422Z,18.35
2022-10-19T12:21:47.639Z,18.54
2022-10-19T12:26:51.937Z,18.74
2022-10-19T12:31:56.298Z,18.86
2022-10-19T12:37:12.176Z,18.96
2022-10-19T12:42:39.453Z,18.97
2022-10-19T12:48:01.126Z,18.98
2022-10-19T12:53:02.990Z,19.08
2022-10-19T12:58:26.414Z,19.20
2022-10-19T13:03:34.111Z,19.34
2022-10-19T13:08:43.538Z,19.47
2022-10-19T13:14:06.578Z,19.63
2022-10-19T13:19:14.555Z,19.65
2022-10-19T13:24:25.417Z,19.60
2022-10-19T13:29:39.537Z,19.61
2022-10-19T13:34:42.527Z,19.64
2022-10-19T13:39:44.428Z,19.68
2022-10-19T13:44:47.239Z,19.80
2022-10-19T13:50:18.055Z,19.91
2022-10-19T13:55:47.316Z,20.03
2022-10-19T14:01:05.842Z,20.15
2022-10-19T14:06:26.092Z,20.24
2022-10-19T14:12:06.870Z,20.27
2022-10-19T14:22:34.062Z,20.55
2022-10-19T14:27:37.073Z,20.68
2022-10-19T14:37:43.577Z,20.82
2022-10-19T14:42:47.530Z,20.87
2022-10-19T14:47:53.085Z,20.92
2022-10-19T14:53:01.382Z,20.97
2022-10-19T14:58:05.592Z,21.02
2022-10-19T15:03:12.606Z,21.10
2022-10-19T15:08:24.747Z,21.17
2022-10-19T15:13:32.110Z,21.26
2022-10-19T15:18:49.771Z,21.32
2022-10-19T15:23:53.320Z,21.33
2022-10-19T15:29:07.974Z,21.26
2022-10-19T15:34:23.615Z,21.20
2022-10-19T15:39:39.827Z,21.19
2022-10-19T15:44:44.761Z,21.16
2022-10-19T15:49:53.342Z,21.06
2022-10-19T15:54:57.715Z,20.89
2022-10-19T16:00:12.646Z,20.72
2022-10-19T16:05:14.675Z,20.50
2022-10-19T16:10:23.051Z,20.28
2022-10-19T16:15:24.818Z,19.99
2022-10-19T16:20:29.496Z,19.79
2022-10-19T16:25:31.414Z,19.60
2022-10-19T16:30:33.245Z,19.40
2022-10-19T16:35:37.512Z,19.25
2022-10-19T16:40:39.294Z,19.09
2022-10-19T16:45:44.399Z,18.94
2022-10-19T16:50:45.953Z,18.78
2022-10-19T16:55:48.056Z,18.65
2022-10-19T17:00:49.962Z,18.52
2022-10-19T17:05:52.621Z,18.38
2022-10-19T17:10:54.238Z,18.25
2022-10-19T17:15:55.811Z,18.13
2022-10-19T17:21:10.319Z,18.03
2022-10-19T17:26:13.139Z,17.91
2022-10-19T17:31:15.478Z,17.82
2022-10-19T17:36:21.258Z,17.71
2022-10-19T17:41:23.333Z,17.63
2022-10-19T17:46:28.395Z,17.53
2022-10-19T17:51:33.238Z,17.44
2022-10-19T17:56:36.827Z,17.33
2022-10-19T18:01:38.532Z,17.25
2022-10-19T18:06:40.270Z,17.15
2022-10-19T18:11:43.929Z,17.06
2022-10-19T18:16:47.321Z,16.98
2022-10-19T18:21:49.325Z,16.87
2022-10-19T18:26:51.482Z,16.79
2022-10-19T18:31:53.591Z,16.72
2022-10-19T18:36:55.412Z,16.59
2022-10-19T18:41:57.396Z,16.51
2022-10-19T18:46:59.215Z,16.39
2022-10-19T18:52:00.899Z,16.31
2022-10-19T18:57:02.796Z,16.23
2022-10-19T19:02:05.867Z,16.17
2022-10-19T19:07:07.590Z,16.12
2022-10-19T19:12:09.738Z,16.06
2022-10-19T19:17:11.476Z,16.01
2022-10-19T19:22:13.127Z,15.97
2022-10-19T19:27:14.752Z,15.94
2022-10-19T19:32:17.469Z,15.91
2022-10-19T19:37:19.107Z,15.87
2022-10-19T19:42:24.365Z,15.84
2022-10-19T19:47:28.683Z,15.78
2022-10-19T19:52:30.356Z,15.75
2022-10-19T19:57:32.383Z,15.71
2022-10-19T20:02:37.563Z,15.65
2022-10-19T20:07:39.266Z,15.58
2022-10-19T20:12:40.866Z,15.54
2022-10-19T20:17:46.474Z,15.50
2022-10-19T20:22:51.438Z,15.45
2022-10-19T20:27:53.057Z,15.41
2022-10-19T20:32:55.642Z,15.36
2022-10-19T20:37:59.115Z,15.33
2022-10-19T20:43:02.318Z,15.29
2022-10-19T20:48:03.972Z,15.24
2022-10-19T20:53:05.782Z,15.20
2022-10-19T20:58:07.614Z,15.16
2022-10-19T21:03:09.361Z,15.10
2022-10-19T21:08:11.508Z,15.07
2022-10-19T21:13:13.922Z,15.02
2022-10-19T21:18:16.219Z,14.95
2022-10-19T21:23:19.394Z,14.90
2022-10-19T21:28:20.988Z,14.85
2022-10-19T21:33:25.647Z,14.78
2022-10-19T21:38:30.671Z,14.73
2022-10-19T21:43:33.609Z,14.69
2022-10-19T21:48:36.823Z,14.62
2022-10-19T21:53:38.415Z,14.57
2022-10-19T21:58:44.717Z,14.53
2022-10-19T22:03:46.423Z,14.46
2022-10-19T22:08:49.116Z,14.40
2022-10-19T22:13:54.927Z,14.35
2022-10-19T22:18:56.961Z,14.27
2022-10-19T22:24:02.613Z,14.21
2022-10-19T22:29:07.038Z,14.15
2022-10-19T22:34:13.085Z,14.08
2022-10-19T22:39:15.010Z,14.01
2022-10-19T22:44:16.619Z,13.96
2022-10-19T22:49:18.557Z,13.91
2022-10-19T22:54:20.109Z,13.88
2022-10-19T22:59:21.756Z,13.84
2022-10-19T23:04:23.266Z,13.79
2022-10-19T23:09:24.860Z,13.75
2022-10-19T23:14:27.815Z,13.73
2022-10-19T23:19:29.452Z,13.69
2022-10-19T23:24:31.147Z,13.67
2022-10-19T23:29:32.771Z,13.63
2022-10-19T23:39:36.860Z,13.57
2022-10-19T23:44:38.422Z,13.52
2022-10-19T23:49:40.110Z,13.49
2022-10-19T23:54:41.929Z,13.47
2022-10-19T23:59:43.531Z,13.43
